Time;durP1;ratioP1;P1;durP2;ratioP2;P2;SDS_P1;SDS_P2;PMS_P1;PMS_P2;Temp;Humidity;BMP_temperature;BMP_pressure;BME280_temperature;BME280_humidity;BME280_pressure;Samples;Min_cycle;Max_cycle;Signal;HPM_P1;HPM_P2
2022/10/25 00:01:24;;;;;;;7.53;2.63;;;;;;;22.53;47.40;101861.81;4181892;28;20033;-71
2022/10/25 00:03:28;;;;;;;8.18;2.50;;;;;;;22.54;47.40;101861.59;4181629;28;20045;-70
2022/10/25 00:05:29;;;;;;;6.00;2.53;;;;;;;22.51;47.46;101852.91;4190107;28;20044;-70
2022/10/25 00:07:30;;;;;;;7.05;2.50;;;;;;;22.53;47.66;101864.63;4198492;28;20105;-69
2022/10/25 00:09:31;;;;;;;6.50;2.67;;;;;;;22.52;47.45;101862.94;4197959;28;20101;-69
2022/10/25 00:11:33;;;;;;;4.32;2.67;;;;;;;22.54;47.25;101871.88;4198135;28;20078;-69
2022/10/25 00:13:34;;;;;;;5.07;2.20;;;;;;;22.53;47.53;101873.81;4198463;28;20109;-75
2022/10/25 00:15:38;;;;;;;6.65;2.45;;;;;;;22.20;47.34;101816.44;4197370;28;20044;-74
2022/10/25 00:17:40;;;;;;;6.10;2.45;;;;;;;22.54;47.33;101871.88;4198127;28;20040;-75
2022/10/25 00:19:44;;;;;;;8.23;2.63;;;;;;;22.51;47.27;101870.47;4198246;28;20085;-74
2022/10/25 00:21:48;;;;;;;7.38;2.47;;;;;;;22.54;47.02;101875.53;4198611;28;20040;-74
2022/10/25 00:23:51;;;;;;;5.78;2.42;;;;;;;22.44;47.08;101844.75;4197950;28;20032;-74
2022/10/25 00:26:03;;;;;;;7.00;2.60;;;;;;;22.39;47.40;101841.94;4194607;28;20040;-69
2022/10/25 00:28:04;;;;;;;8.35;2.90;;;;;;;22.60;47.56;101876.38;4197883;28;20045;-69
2022/10/25 00:30:09;;;;;;;6.78;2.78;;;;;;;22.57;47.41;101860.19;4197918;28;20094;-70
2022/10/25 00:32:11;;;;;;;12.43;2.80;;;;;;;22.58;47.48;101867.44;4196843;28;20040;-70
2022/10/25 00:34:12;;;;;;;8.02;2.40;;;;;;;22.58;47.50;101868.28;4197853;28;20036;-70
2022/10/25 00:36:28;;;;;;;7.35;2.70;;;;;;;22.44;47.48;101843.94;4197073;28;20036;-69
2022/10/25 00:38:30;;;;;;;3.83;2.00;;;;;;;22.59;47.57;101869.13;4197907;28;20048;-69
2022/10/25 00:40:34;;;;;;;6.97;2.50;;;;;;;22.58;47.97;101875.81;4207535;28;20036;-69
2022/10/25 00:42:35;;;;;;;6.18;2.33;;;;;;;22.39;47.60;101841.09;4196703;28;20380;-70
2022/10/25 00:44:42;;;;;;;5.90;2.42;;;;;;;22.58;47.52;101879.44;4181178;28;20025;-69
2022/10/25 00:46:46;;;;;;;5.50;2.47;;;;;;;22.58;47.53;101873.00;4186911;28;20041;-69
2022/10/25 00:49:03;;;;;;;4.85;1.80;;;;;;;22.58;47.68;101876.63;4197707;28;20032;-69
2022/10/25 00:51:04;;;;;;;5.25;1.98;;;;;;;22.56;47.47;101869.66;4197598;28;20041;-69
2022/10/25 00:53:12;;;;;;;6.50;2.13;;;;;;;22.52;47.40;101869.34;4197547;28;20037;-69
2022/10/25 00:55:16;;;;;;;4.90;2.50;;;;;;;22.63;47.40;101883.38;4196260;28;20546;-69
2022/10/25 00:57:34;;;;;;;9.25;2.28;;;;;;;22.59;47.59;101883.09;4212052;28;20101;-70
2022/10/25 00:59:37;;;;;;;5.45;2.30;;;;;;;22.61;47.46;101878.06;4214393;28;20548;-70
2022/10/25 01:01:38;;;;;;;5.72;2.28;;;;;;;22.58;47.82;101873.00;4214724;28;20040;-69
2022/10/25 01:03:41;;;;;;;3.92;2.58;;;;;;;22.63;47.64;101875.84;4214472;28;20044;-70
2022/10/25 01:05:47;;;;;;;5.57;2.28;;;;;;;22.61;47.51;101883.66;4203017;28;20476;-71
2022/10/25 01:07:48;;;;;;;9.00;2.70;;;;;;;22.62;47.73;101884.47;4191170;28;20067;-70
2022/10/25 01:09:50;;;;;;;5.07;2.30;;;;;;;22.61;47.57;101882.81;4195757;28;20507;-69
2022/10/25 01:11:52;;;;;;;5.40;2.60;;;;;;;22.62;47.58;101884.47;4196949;28;20079;-70
2022/10/25 01:13:54;;;;;;;6.18;2.50;;;;;;;22.61;47.41;101886.44;4192704;28;20423;-70
2022/10/25 01:16:09;;;;;;;4.25;2.15;;;;;;;22.62;47.48;101890.06;4183524;28;20102;-70
2022/10/25 01:18:26;;;;;;;4.00;2.37;;;;;;;22.57;47.75;101872.19;4183077;28;20053;-69
2022/10/25 01:20:27;;;;;;;6.47;2.53;;;;;;;22.64;47.44;101883.13;4183013;28;20110;-69
2022/10/25 01:22:55;;;;;;;6.53;1.92;;;;;;;22.60;47.59;101881.97;4197682;28;20480;-70
2022/10/25 01:25:21;;;;;;;6.10;1.80;;;;;;;22.63;47.44;101881.41;4181915;28;20033;-71
2022/10/25 01:27:52;;;;;;;5.25;2.47;;;;;;;22.62;47.71;101873.31;4194226;28;20033;-69
2022/10/25 01:30:12;;;;;;;5.53;2.10;;;;;;;22.63;47.45;101873.03;4197447;28;20479;-70
2022/10/25 01:32:23;;;;;;;5.43;1.98;;;;;;;22.55;47.35;101854.03;4213519;28;20486;-69
2022/10/25 01:34:51;;;;;;;6.00;2.33;;;;;;;21.88;47.41;101757.13;4211179;28;20044;-69
2022/10/25 01:37:09;;;;;;;3.95;2.03;;;;;;;22.65;47.54;101884.78;4196154;28;20484;-70
2022/10/25 01:39:33;;;;;;;6.40;2.33;;;;;;;22.64;47.68;101882.28;4192266;28;20037;-70
2022/10/25 01:42:26;;;;;;;4.55;2.20;;;;;;;22.63;47.73;101884.19;4195118;28;20048;-71
2022/10/25 01:44:49;;;;;;;6.40;2.30;;;;;;;22.65;47.77;101889.53;4182380;28;20046;-70
2022/10/25 01:47:16;;;;;;;3.38;1.70;;;;;;;22.65;47.37;101881.16;4189550;28;20091;-71
2022/10/25 01:49:36;;;;;;;4.13;2.10;;;;;;;22.68;47.50;101884.25;4181067;28;20484;-71
2022/10/25 01:51:37;;;;;;;4.60;1.83;;;;;;;22.68;47.09;101880.59;4184709;28;21728;-73
2022/10/25 01:53:57;;;;;;;4.50;2.05;;;;;;;22.67;47.33;101876.13;4197532;28;20178;-71
2022/10/25 01:56:03;;;;;;;4.45;1.63;;;;;;;22.43;47.16;101843.09;4180801;28;20099;-72
2022/10/25 01:58:10;;;;;;;6.78;1.92;;;;;;;22.67;47.49;101888.13;4191077;28;20090;-72
2022/10/25 02:00:19;;;;;;;5.60;1.95;;;;;;;22.64;47.51;101871.97;4194628;28;20056;-73
2022/10/25 02:02:30;;;;;;;5.07;2.08;;;;;;;22.57;47.82;101865.75;4196020;28;20052;-72
2022/10/25 02:04:54;;;;;;;6.25;2.50;;;;;;;22.60;48.03;101868.03;4190919;28;20105;-72
2022/10/25 02:07:07;;;;;;;4.30;1.67;;;;;;;22.56;48.05;101864.09;4154068;28;20045;-74
2022/10/25 02:09:24;;;;;;;6.25;2.55;;;;;;;22.55;47.91;101868.00;4179009;28;20099;-72
2022/10/25 02:11:29;;;;;;;5.25;2.10;;;;;;;22.55;48.45;101862.41;4189321;28;20426;-72
2022/10/25 02:13:43;;;;;;;4.25;1.95;;;;;;;22.53;48.04;101870.19;4196133;28;20190;-72
2022/10/25 02:16:01;;;;;;;2.80;1.67;;;;;;;22.48;48.30;101864.59;4180965;28;20049;-73
2022/10/25 02:18:08;;;;;;;2.92;1.70;;;;;;;22.53;48.23;101881.34;4194448;28;20438;-72
2022/10/25 02:20:12;;;;;;;6.00;2.30;;;;;;;22.27;48.33;101844.94;4196917;28;20431;-72
2022/10/25 02:22:16;;;;;;;4.57;2.15;;;;;;;22.52;48.25;101885.25;4196052;28;20162;-72
2022/10/25 02:24:22;;;;;;;4.85;1.75;;;;;;;22.51;48.42;101889.16;4199966;28;20040;-73
2022/10/25 02:26:25;;;;;;;4.68;2.20;;;;;;;22.21;48.25;101837.63;4198941;28;20090;-73
2022/10/25 02:28:27;;;;;;;4.32;2.03;;;;;;;22.51;48.55;101878.00;4200061;28;20082;-72
2022/10/25 02:30:36;;;;;;;3.50;1.77;;;;;;;22.43;48.43;101870.97;4198510;28;20098;-71
2022/10/25 02:32:38;;;;;;;4.85;1.98;;;;;;;22.51;48.37;101873.25;4198285;28;20052;-73
2022/10/25 02:34:40;;;;;;;16.65;2.85;;;;;;;22.51;48.08;101861.28;4199247;28;20044;-70
2022/10/25 02:36:41;;;;;;;11.07;2.58;;;;;;;22.51;48.25;101869.63;4197399;28;20109;-69
2022/10/25 02:38:43;;;;;;;9.82;2.03;;;;;;;22.44;48.17;101855.09;4194705;28;20577;-70
2022/10/25 02:40:44;;;;;;;9.07;1.73;;;;;;;22.52;48.41;101872.16;4196043;28;20463;-70
2022/10/25 02:42:45;;;;;;;8.65;2.15;;;;;;;22.44;48.39;101855.91;4197784;28;20488;-71
2022/10/25 02:44:47;;;;;;;7.75;1.77;;;;;;;22.56;47.92;101870.50;4198446;28;20044;-72
2022/10/25 02:46:48;;;;;;;12.00;2.33;;;;;;;22.57;47.94;101865.75;4194548;28;20439;-72
2022/10/25 02:48:50;;;;;;;5.95;1.70;;;;;;;22.62;47.70;101868.56;4183065;28;20033;-72
2022/10/25 02:50:51;;;;;;;4.68;2.05;;;;;;;22.64;47.66;101866.38;4182737;28;20099;-72
2022/10/25 02:52:53;;;;;;;10.27;2.28;;;;;;;22.65;47.71;101856.06;4197862;28;20094;-72
2022/10/25 02:54:54;;;;;;;9.63;1.88;;;;;;;22.66;47.85;101863.31;4197660;28;20545;-71
2022/10/25 02:56:55;;;;;;;10.55;2.50;;;;;;;22.53;47.64;101843.13;4196909;28;20040;-72
2022/10/25 02:58:57;;;;;;;10.35;3.05;;;;;;;22.67;47.59;101860.22;4190424;28;20079;-70
2022/10/25 03:00:59;;;;;;;9.00;4.25;;;;;;;22.68;47.53;101855.50;4196937;28;20139;-70
2022/10/25 03:03:00;;;;;;;12.73;4.47;;;;;;;22.69;47.72;101858.03;4189088;28;20057;-71
2022/10/25 03:05:01;;;;;;;15.90;5.47;;;;;;;22.69;47.89;101858.03;4197355;28;20059;-71
2022/10/25 03:07:03;;;;;;;19.90;7.05;;;;;;;22.70;47.72;101856.06;4197007;28;20507;-73
2022/10/25 03:09:04;;;;;;;25.77;9.23;;;;;;;22.70;47.74;101845.75;4189881;28;20040;-71
2022/10/25 03:11:09;;;;;;;25.15;10.38;;;;;;;22.71;47.59;101846.59;4182563;28;20079;-71
2022/10/25 03:13:11;;;;;;;33.42;12.30;;;;;;;22.52;47.84;101819.16;4198443;28;20029;-71
2022/10/25 03:15:12;;;;;;;27.88;11.07;;;;;;;22.69;47.49;101838.50;4198159;28;20098;-71
2022/10/25 03:17:16;;;;;;;41.80;14.35;;;;;;;22.72;47.57;101843.50;4191540;28;20029;-69
2022/10/25 03:19:17;;;;;;;36.53;14.13;;;;;;;22.71;47.75;101839.06;4198612;28;20094;-70
2022/10/25 03:21:18;;;;;;;41.38;16.63;;;;;;;22.72;47.66;101837.09;4199147;28;20078;-71
2022/10/25 03:23:23;;;;;;;47.72;17.77;;;;;;;22.72;47.65;101835.16;4198959;28;20033;-71
2022/10/25 03:25:26;;;;;;;40.03;18.93;;;;;;;22.61;47.94;101822.28;4198685;28;20044;-71
2022/10/25 03:27:28;;;;;;;46.33;18.25;;;;;;;22.73;47.72;101839.63;4190958;28;20079;-70
2022/10/25 03:29:29;;;;;;;49.83;20.63;;;;;;;22.72;47.39;101843.50;4189426;28;20090;-69
2022/10/25 03:31:30;;;;;;;53.25;20.63;;;;;;;22.72;47.65;101840.72;4196998;28;20048;-71
2022/10/25 03:33:32;;;;;;;51.00;21.00;;;;;;;22.51;47.79;101806.31;4194140;28;20086;-71
2022/10/25 03:35:36;;;;;;;61.92;23.30;;;;;;;22.73;47.53;101830.44;4184047;28;20041;-73
2022/10/25 03:37:37;;;;;;;52.70;22.42;;;;;;;22.73;47.87;101831.28;4198540;28;20086;-73
2022/10/25 03:39:38;;;;;;;50.58;21.33;;;;;;;22.75;47.90;101831.81;4196896;28;20102;-72
2022/10/25 03:41:39;;;;;;;57.42;24.10;;;;;;;22.74;47.61;101816.19;4195720;28;20032;-71
2022/10/25 03:43:41;;;;;;;52.53;22.77;;;;;;;22.72;47.67;101812.81;4194972;28;20085;-70
2022/10/25 03:45:45;;;;;;;64.97;24.20;;;;;;;22.75;47.93;101811.47;4199662;28;20040;-70
2022/10/25 03:47:46;;;;;;;54.35;23.27;;;;;;;22.77;47.63;101815.66;4210163;28;20105;-71
2022/10/25 03:49:47;;;;;;;59.45;23.73;;;;;;;22.79;47.43;101807.00;4198579;28;20041;-71
2022/10/25 03:51:49;;;;;;;66.63;24.60;;;;;;;22.78;47.82;101808.13;4198665;28;20036;-71
2022/10/25 03:53:52;;;;;;;62.65;26.05;;;;;;;22.77;47.80;101804.50;4198397;28;20082;-71
2022/10/25 03:55:53;;;;;;;66.75;26.88;;;;;;;22.70;47.95;101795.53;4198219;28;20048;-71
2022/10/25 03:57:54;;;;;;;61.85;23.58;;;;;;;22.76;47.86;101797.22;4198632;28;20041;-71
2022/10/25 03:59:56;;;;;;;68.15;25.67;;;;;;;22.77;48.25;101793.34;4198344;28;20032;-71
2022/10/25 04:01:59;;;;;;;54.70;23.58;;;;;;;22.75;48.05;101789.13;4197883;28;20110;-72
2022/10/25 04:04:00;;;;;;;64.03;26.08;;;;;;;22.75;47.99;101784.38;4180989;28;20033;-71
2022/10/25 04:06:02;;;;;;;55.85;25.70;;;;;;;22.74;47.98;101785.50;4181813;28;20033;-69
2022/10/25 04:08:03;;;;;;;58.60;25.50;;;;;;;22.75;48.17;101778.81;4181937;28;20033;-71
2022/10/25 04:10:05;;;;;;;66.00;26.92;;;;;;;22.77;47.97;101775.72;4181059;28;20079;-71
2022/10/25 04:12:06;;;;;;;62.30;26.08;;;;;;;22.75;47.89;101776.00;4181976;28;20090;-70
2022/10/25 04:14:16;;;;;;;61.17;24.45;;;;;;;22.63;48.13;101752.25;4180821;28;20037;-70
2022/10/25 04:16:22;;;;;;;61.03;26.33;;;;;;;22.75;48.09;101775.19;4181779;28;20415;-71
2022/10/25 04:18:23;;;;;;;58.08;23.58;;;;;;;22.71;48.15;101772.09;4181728;28;20527;-71
2022/10/25 04:20:27;;;;;;;58.38;24.52;;;;;;;22.73;48.02;101775.47;4189456;28;20029;-71
2022/10/25 04:22:28;;;;;;;58.83;24.05;;;;;;;22.74;47.71;101779.09;4196043;28;20024;-70
2022/10/25 04:24:30;;;;;;;58.30;23.65;;;;;;;22.74;48.08;101777.13;4197331;28;20110;-71
2022/10/25 04:26:33;;;;;;;57.97;24.92;;;;;;;22.74;48.33;101779.09;4197577;28;20040;-70
2022/10/25 04:28:35;;;;;;;55.65;24.77;;;;;;;22.71;48.10;101771.25;4197008;28;20106;-70
2022/10/25 04:30:36;;;;;;;52.47;23.65;;;;;;;22.73;48.08;101772.69;4197925;28;20036;-71
2022/10/25 04:32:37;;;;;;;56.38;24.77;;;;;;;22.72;48.15;101768.19;4198062;28;20082;-70
2022/10/25 04:34:38;;;;;;;56.53;24.20;;;;;;;22.72;47.87;101770.97;4198056;28;20024;-70
2022/10/25 04:36:42;;;;;;;55.38;24.52;;;;;;;22.62;48.07;101750.56;4198179;28;20037;-70
2022/10/25 04:38:47;;;;;;;58.55;24.40;;;;;;;22.54;47.96;101735.19;4199121;28;20094;-70
2022/10/25 04:40:58;;;;;;;55.08;24.10;;;;;;;22.71;48.15;101772.09;4197889;28;20044;-70
2022/10/25 04:43:01;;;;;;;55.33;24.23;;;;;;;22.70;48.21;101766.78;4197820;28;20032;-70
2022/10/25 04:45:05;;;;;;;56.30;22.33;;;;;;;22.52;48.01;101732.69;4197114;28;20040;-69
2022/10/25 04:47:07;;;;;;;57.45;24.23;;;;;;;22.70;48.10;101769.59;4197867;28;20032;-70
2022/10/25 04:49:11;;;;;;;47.83;21.58;;;;;;;22.72;48.16;101773.75;4197867;28;20040;-70
2022/10/25 04:51:14;;;;;;;51.58;22.15;;;;;;;22.64;48.10;101754.78;4196743;28;20475;-71
2022/10/25 04:53:15;;;;;;;53.72;23.08;;;;;;;22.73;48.02;101777.41;4197531;28;20040;-70
2022/10/25 04:55:16;;;;;;;52.85;22.50;;;;;;;22.72;48.15;101773.75;4197867;28;20049;-71
2022/10/25 04:57:18;;;;;;;53.03;22.23;;;;;;;22.72;47.89;101765.38;4197706;28;20052;-70
2022/10/25 04:59:19;;;;;;;44.40;20.42;;;;;;;22.69;48.21;101763.16;4197894;28;20048;-69
2022/10/25 05:01:20;;;;;;;49.25;22.13;;;;;;;22.71;48.01;101766.50;4196888;28;20430;-70
2022/10/25 05:03:21;;;;;;;56.28;22.17;;;;;;;22.70;48.03;101761.22;4197818;28;20087;-69
2022/10/25 05:05:24;;;;;;;47.28;21.60;;;;;;;22.73;48.02;101760.69;4197562;28;20033;-71
2022/10/25 05:07:25;;;;;;;52.65;21.88;;;;;;;22.71;48.00;101760.94;4197732;28;20082;-70
2022/10/25 05:09:26;;;;;;;58.35;22.77;;;;;;;22.69;47.89;101754.81;4197577;28;20372;-70
2022/10/25 05:11:31;;;;;;;49.55;21.58;;;;;;;22.67;48.25;101751.44;4197322;28;20048;-71
2022/10/25 05:13:37;;;;;;;50.72;21.20;;;;;;;22.71;48.30;101760.09;4197902;28;20036;-71
2022/10/25 05:15:38;;;;;;;55.38;22.33;;;;;;;22.72;48.19;101751.44;4196884;28;20036;-70
2022/10/25 05:17:39;;;;;;;47.70;21.85;;;;;;;22.73;48.11;101746.72;4197803;28;20029;-70
2022/10/25 05:19:40;;;;;;;49.78;21.60;;;;;;;22.72;48.18;101745.03;4197232;28;20098;-70
2022/10/25 05:21:42;;;;;;;45.28;19.63;;;;;;;22.72;48.33;101747.81;4197346;28;20094;-70
2022/10/25 05:23:43;;;;;;;48.70;21.60;;;;;;;22.71;48.54;101744.19;4197656;28;20468;-70
2022/10/25 05:25:45;;;;;;;44.78;19.40;;;;;;;22.71;48.33;101744.19;4197258;28;20028;-70
2022/10/25 05:27:46;;;;;;;44.92;19.75;;;;;;;22.72;48.33;101740.28;4198429;28;20044;-70
2022/10/25 05:29:47;;;;;;;47.95;21.00;;;;;;;22.72;48.48;101737.50;4213922;28;20040;-70
2022/10/25 05:31:49;;;;;;;40.55;18.95;;;;;;;22.72;48.56;101740.28;4213806;28;20040;-71
2022/10/25 05:33:53;;;;;;;42.63;20.05;;;;;;;22.54;48.35;101704.50;4213725;28;20089;-71
2022/10/25 05:36:01;;;;;;;41.95;19.05;;;;;;;22.68;48.30;101733.59;4213532;28;20066;-71
2022/10/25 05:38:03;;;;;;;41.92;19.17;;;;;;;22.71;48.27;101735.81;4213730;28;20556;-70
2022/10/25 05:40:04;;;;;;;36.15;18.63;;;;;;;22.70;48.22;101730.53;4200346;28;20541;-71
2022/10/25 05:42:06;;;;;;;40.90;19.13;;;;;;;22.69;48.48;101731.66;4197308;28;20075;-71
2022/10/25 05:44:07;;;;;;;42.28;19.05;;;;;;;22.71;48.31;101733.03;4197309;28;20549;-71
2022/10/25 05:46:12;;;;;;;42.20;19.73;;;;;;;22.71;48.49;101738.59;4197100;28;20094;-71
2022/10/25 05:48:17;;;;;;;41.45;18.95;;;;;;;22.71;48.12;101726.63;4197168;28;20044;-71
2022/10/25 05:50:22;;;;;;;42.28;18.58;;;;;;;22.72;48.30;101729.13;4197356;28;20412;-71
2022/10/25 05:52:23;;;;;;;39.80;17.77;;;;;;;22.68;48.57;101728.03;4196812;28;20033;-71
2022/10/25 05:54:24;;;;;;;42.35;18.65;;;;;;;22.71;48.55;101724.66;4196421;28;20032;-71
2022/10/25 05:56:27;;;;;;;37.83;17.73;;;;;;;22.57;48.22;101701.19;4196230;28;20090;-71
2022/10/25 05:58:29;;;;;;;42.20;18.75;;;;;;;22.68;48.26;101724.38;4183537;28;20094;-71
2022/10/25 06:00:30;;;;;;;36.17;17.63;;;;;;;22.69;48.25;101724.09;4193153;28;20082;-71
2022/10/25 06:02:40;;;;;;;41.67;18.67;;;;;;;22.66;48.28;101712.66;4200374;28;20059;-70
2022/10/25 06:04:44;;;;;;;41.10;18.98;;;;;;;22.67;48.46;101722.69;4200298;28;20040;-69
2022/10/25 06:06:46;;;;;;;35.60;17.42;;;;;;;22.70;48.06;101728.56;4199432;28;20040;-70
2022/10/25 06:08:48;;;;;;;35.85;17.55;;;;;;;22.71;48.35;101738.59;4200276;28;20040;-70
2022/10/25 06:10:49;;;;;;;41.08;18.17;;;;;;;22.69;48.40;101731.66;4200017;28;20106;-71
2022/10/25 06:12:50;;;;;;;40.53;17.40;;;;;;;22.70;48.28;101736.94;4199882;28;20048;-70
2022/10/25 06:14:51;;;;;;;39.05;16.77;;;;;;;22.68;48.18;101727.16;4199627;28;20082;-70
2022/10/25 06:16:53;;;;;;;37.03;16.45;;;;;;;22.69;48.14;101729.69;4200090;28;20032;-70
2022/10/25 06:18:54;;;;;;;37.40;17.63;;;;;;;22.55;48.28;101717.38;4200195;28;20036;-71
2022/10/25 06:21:03;;;;;;;36.90;16.27;;;;;;;22.69;48.20;101737.22;4200257;28;20090;-70
2022/10/25 06:23:06;;;;;;;39.00;17.83;;;;;;;22.69;48.10;101740.00;4199565;28;20102;-70
2022/10/25 06:25:08;;;;;;;36.63;17.27;;;;;;;22.69;48.04;101735.28;4199656;28;20032;-71
2022/10/25 06:27:12;;;;;;;38.88;18.00;;;;;;;22.65;48.45;101722.13;4200091;28;20040;-71
2022/10/25 06:29:22;;;;;;;34.27;15.73;;;;;;;22.69;47.81;101735.28;4199740;28;20041;-70
2022/10/25 06:31:24;;;;;;;32.65;16.45;;;;;;;22.44;48.15;101684.97;4200185;28;20674;-70
2022/10/25 06:33:25;;;;;;;42.00;17.48;;;;;;;22.67;47.83;101723.53;4198770;28;20044;-71
2022/10/25 06:35:28;;;;;;;35.83;17.55;;;;;;;22.66;47.85;101716.28;4199500;28;20032;-71
2022/10/25 06:37:32;;;;;;;37.00;16.83;;;;;;;22.73;48.11;101719.66;4197693;28;20364;-72
2022/10/25 06:39:33;;;;;;;34.60;16.75;;;;;;;22.63;47.95;101708.44;4207510;28;20041;-71
2022/10/25 06:41:37;;;;;;;32.17;14.27;;;;;;;22.69;47.74;101718.53;4206504;28;20032;-70
2022/10/25 06:43:39;;;;;;;37.38;16.67;;;;;;;22.72;47.54;101717.97;4200102;28;20033;-71
2022/10/25 06:45:41;;;;;;;38.67;16.85;;;;;;;22.73;47.56;101714.09;4198226;28;20036;-71
2022/10/25 06:47:45;;;;;;;32.00;15.50;;;;;;;22.74;47.69;101717.72;4199633;28;20037;-69
2022/10/25 06:49:46;;;;;;;34.80;15.55;;;;;;;22.74;47.58;101714.91;4199603;28;20040;-70
2022/10/25 06:51:50;;;;;;;31.30;15.13;;;;;;;22.73;47.69;101714.09;4199372;28;20450;-71
2022/10/25 06:53:58;;;;;;;31.13;16.63;;;;;;;22.71;47.64;101719.06;4210186;28;20048;-71
2022/10/25 06:56:01;;;;;;;31.65;15.45;;;;;;;22.73;47.64;101725.25;4215886;28;20039;-71
2022/10/25 06:58:02;;;;;;;35.10;16.17;;;;;;;22.73;47.80;101719.66;4216177;28;20109;-69
2022/10/25 07:00:04;;;;;;;34.38;16.13;;;;;;;22.71;47.49;101721.88;4215913;28;20035;-70
2022/10/25 07:02:05;;;;;;;30.40;14.98;;;;;;;22.73;48.08;101721.63;4215828;28;20044;-71
2022/10/25 07:04:12;;;;;;;29.52;15.80;;;;;;;22.59;47.85;101701.75;4215723;28;20427;-71
2022/10/25 07:06:16;;;;;;;33.63;15.05;;;;;;;22.70;47.74;101724.94;4215558;28;20074;-71
2022/10/25 07:08:17;;;;;;;33.28;15.25;;;;;;;22.68;47.91;101716.84;4215760;28;20044;-71
2022/10/25 07:10:19;;;;;;;32.60;15.18;;;;;;;22.46;47.98;101682.75;4215208;28;20036;-71
2022/10/25 07:12:21;;;;;;;33.53;15.70;;;;;;;22.69;48.13;101729.69;4215521;28;20074;-68
2022/10/25 07:14:22;;;;;;;29.17;14.38;;;;;;;22.65;48.20;101714.59;4215995;28;20094;-70
2022/10/25 07:16:24;;;;;;;28.60;14.48;;;;;;;22.68;47.95;101725.22;4215769;28;20032;-70
2022/10/25 07:18:29;;;;;;;28.48;14.23;;;;;;;22.67;47.95;101729.09;4215771;28;20044;-70
2022/10/25 07:20:30;;;;;;;27.08;14.25;;;;;;;22.69;47.88;101718.53;4213075;28;20426;-70
2022/10/25 07:22:32;;;;;;;28.73;13.93;;;;;;;22.70;47.50;101720.19;4198649;28;20377;-70
2022/10/25 07:24:33;;;;;;;29.65;14.70;;;;;;;22.70;47.55;101717.41;4198569;28;20098;-71
2022/10/25 07:26:34;;;;;;;30.65;15.73;;;;;;;22.71;47.87;101719.06;4198649;28;20105;-70
2022/10/25 07:28:36;;;;;;;31.10;13.45;;;;;;;22.41;47.91;101666.00;4213419;28;20483;-71
2022/10/25 07:30:45;;;;;;;33.08;13.65;;;;;;;22.55;47.87;101695.88;4197620;28;20036;-70
2022/10/25 07:32:49;;;;;;;28.67;13.38;;;;;;;22.70;47.78;101720.19;4197762;28;20105;-70
2022/10/25 07:34:50;;;;;;;27.50;13.45;;;;;;;22.69;47.93;101712.94;4196569;28;20094;-71
2022/10/25 07:36:51;;;;;;;25.73;13.30;;;;;;;22.68;48.29;101719.66;4198002;28;20045;-70
2022/10/25 07:38:53;;;;;;;26.40;13.65;;;;;;;22.68;48.11;101724.38;4196403;28;20525;-71
2022/10/25 07:40:58;;;;;;;43.20;13.82;;;;;;;22.55;47.74;101695.06;4194809;28;20040;-70
2022/10/25 07:42:59;;;;;;;;;;;;;;;22.68;47.64;101733.59;4183701;28;20040;-71
2022/10/25 07:45:00;;;;;;;30.77;13.80;;;;;;;22.72;47.65;101720.75;4197625;28;19912;-71
2022/10/25 07:47:02;;;;;;;30.23;14.38;;;;;;;22.74;47.10;101721.34;4198117;28;20044;-70
2022/10/25 07:49:03;;;;;;;25.58;13.23;;;;;;;22.74;47.57;101726.91;4198382;28;20040;-71
2022/10/25 07:51:10;;;;;;;26.85;13.38;;;;;;;22.73;47.26;101732.78;4199134;28;20036;-71
2022/10/25 07:53:11;;;;;;;27.90;12.98;;;;;;;22.53;47.68;101703.69;4198708;28;20445;-71
2022/10/25 07:55:13;;;;;;;25.73;13.52;;;;;;;22.49;47.88;101701.72;4197861;28;20037;-70
2022/10/25 07:57:14;;;;;;;30.02;13.48;;;;;;;22.69;48.03;101735.28;4198481;28;20040;-71
2022/10/25 07:59:21;;;;;;;33.92;12.88;;;;;;;22.53;48.12;101708.41;4198211;28;20044;-70
2022/10/25 08:01:24;;;;;;;31.23;12.88;;;;;;;22.70;47.79;101728.56;4198690;28;20093;-70
2022/10/25 08:03:28;;;;;;;27.25;13.13;;;;;;;22.70;47.97;101731.38;4198048;28;20414;-71
2022/10/25 08:05:32;;;;;;;21.10;12.07;;;;;;;22.69;47.75;101735.28;4197760;28;20045;-70
2022/10/25 08:07:34;;;;;;;27.70;13.32;;;;;;;22.71;47.95;101729.41;4198079;28;20044;-71
2022/10/25 08:09:35;;;;;;;25.45;13.27;;;;;;;22.61;47.59;101716.25;4198038;28;20093;-70
2022/10/25 08:11:42;;;;;;;26.40;13.15;;;;;;;22.71;47.79;101726.63;4197674;28;20090;-70
2022/10/25 08:13:43;;;;;;;30.88;13.02;;;;;;;22.71;47.39;101730.25;4198292;28;20177;-70
2022/10/25 08:15:56;;;;;;;26.08;13.43;;;;;;;22.51;47.72;101691.13;4197956;28;20094;-71
2022/10/25 08:17:59;;;;;;;23.88;11.90;;;;;;;22.73;47.87;101725.25;4198803;28;20426;-71
2022/10/25 08:20:04;;;;;;;24.27;12.25;;;;;;;22.64;47.31;101715.72;4197641;28;20484;-71
2022/10/25 08:22:14;;;;;;;26.25;13.40;;;;;;;22.70;47.28;101731.38;4198197;28;20471;-70
2022/10/25 08:24:15;;;;;;;25.55;12.20;;;;;;;22.72;47.69;101734.69;4197998;28;20086;-71
2022/10/25 08:26:17;;;;;;;22.40;11.73;;;;;;;22.72;47.29;101734.69;4197807;28;20117;-70
2022/10/25 08:28:18;;;;;;;22.63;12.75;;;;;;;22.70;47.60;101736.94;4198012;28;20102;-71
2022/10/25 08:30:20;;;;;;;25.70;12.27;;;;;;;22.64;47.47;101720.47;4198189;28;20085;-70
2022/10/25 08:32:24;;;;;;;26.60;11.23;;;;;;;22.71;47.44;101727.44;4197897;28;20045;-69
2022/10/25 08:34:25;;;;;;;24.30;12.52;;;;;;;22.71;47.36;101727.44;4198088;28;20048;-71
2022/10/25 08:36:27;;;;;;;21.80;11.25;;;;;;;22.70;47.80;101728.56;4198313;28;20040;-71
2022/10/25 08:38:31;;;;;;;22.15;11.55;;;;;;;22.69;47.52;101734.44;4197720;28;20427;-71
2022/10/25 08:40:58;;;;;;;21.05;11.02;;;;;;;22.67;47.59;101740.28;4197578;28;20489;-71
2022/10/25 08:43:39;;;;;;;24.02;12.43;;;;;;;22.68;47.81;101727.16;4197899;28;20021;-71
2022/10/25 08:46:07;;;;;;;23.75;11.63;;;;;;;22.50;47.89;101701.47;4197301;28;20048;-71
2022/10/25 08:48:15;;;;;;;21.73;11.57;;;;;;;22.71;47.70;101735.00;4196655;28;20430;-70
2022/10/25 08:50:23;;;;;;;22.33;11.75;;;;;;;22.67;47.76;101731.06;4197922;28;20029;-70
2022/10/25 08:52:38;;;;;;;21.77;11.40;;;;;;;22.68;47.89;101733.59;4198459;28;20032;-70
2022/10/25 08:54:42;;;;;;;20.65;10.88;;;;;;;22.67;47.82;101731.91;4197732;28;20545;-70
2022/10/25 08:56:47;;;;;;;20.45;11.07;;;;;;;22.63;47.89;101729.94;4197337;28;20552;-70
2022/10/25 08:58:59;;;;;;;21.08;10.25;;;;;;;22.60;47.89;101736.06;4196851;28;20040;-70
2022/10/25 09:01:11;;;;;;;22.55;11.75;;;;;;;22.60;48.31;101736.91;4197770;28;20483;-70
2022/10/25 09:03:17;;;;;;;21.77;11.00;;;;;;;22.53;47.79;101720.41;4197792;28;20032;-71
2022/10/25 09:05:38;;;;;;;21.33;11.23;;;;;;;22.62;47.99;101740.25;4197358;28;20044;-71
2022/10/25 09:07:55;;;;;;;23.27;11.57;;;;;;;22.61;48.24;101733.00;4197838;28;20172;-71
2022/10/25 09:10:12;;;;;;;22.00;11.57;;;;;;;22.40;47.77;101703.34;4209008;28;20497;-70
2022/10/25 09:12:33;;;;;;;16.77;10.00;;;;;;;22.64;47.97;101743.63;4213790;28;20120;-70
2022/10/25 09:15:07;;;;;;;18.70;9.95;;;;;;;22.64;48.07;101749.22;4213175;28;20428;-70
2022/10/25 09:17:26;;;;;;;21.52;10.57;;;;;;;22.61;48.20;101743.31;4213879;28;20040;-70
2022/10/25 09:19:33;;;;;;;16.38;9.60;;;;;;;22.65;47.90;101750.88;4213768;28;20044;-70
2022/10/25 09:21:41;;;;;;;17.48;10.32;;;;;;;22.64;48.02;101752.00;4214139;28;20472;-71
2022/10/25 09:23:55;;;;;;;21.40;10.52;;;;;;;22.65;47.91;101756.44;4214190;28;20081;-70
2022/10/25 09:26:09;;;;;;;20.02;11.18;;;;;;;22.64;47.96;101752.00;4213099;28;20483;-70
2022/10/25 09:28:18;;;;;;;18.63;10.00;;;;;;;22.64;48.04;101752.00;4213710;28;20044;-71
2022/10/25 09:30:21;;;;;;;19.33;10.77;;;;;;;22.62;48.27;101748.63;4213815;28;20040;-71
2022/10/25 09:32:31;;;;;;;19.63;10.00;;;;;;;22.61;48.12;101755.31;4216442;28;20035;-71
2022/10/25 09:34:32;;;;;;;19.80;9.75;;;;;;;22.61;47.95;101763.69;4217179;28;20047;-70